PROFILE

 METAR AND TAF INFORMATION
ADDS - METARS form results

(2327 UTC 26 May 2019)
http://aviationweather.gov/metar/data/
 
KJFK 262251Z 33007KT 7SM -RA SCT045 BKN090 OVC110 21/21 A2990 RMK AO2 WSHFT 2213 LTG DSNT E TSB22E37B38E49 SLP126 OCNL LTGICCG DSNT E CB DSNT E P0007 T02110211
KJFK 262229Z 34017G22KT 6SM TSRA BR SCT045CB BKN090 OVC110 22/21 A2991 RMK AO2 WSHFT 2213 TSB22 PRESRR FRQ LTGICCG OHD TS OHD MOV E P0005 T02220206
KJFK 262321Z 2700/2806 VRB06KT P6SM BKN060 FM270200 30009KT P6SM SCT060 BKN100 FM270500 33007KT P6SM FEW060 BKN100 FM271300 36009KT P6SM FEW060 SCT250 FM272000 17009KT P6SM SCT060 FM280200 19005KT P6SM FEW060 BKN150 

 AIRPORT MAP

 RUNWAY INFORMATION
Runway 04L Runway length 11351 ft Runway width 150 ft
Runway elevation 12 ft Runway displaced threshold 0 ft Runway heading 31
Runway 22R Runway length 11351 ft Runway width 150 ft
Runway elevation 13 ft Runway displaced threshold 2696 ft Runway heading 211
Runway 04R Runway length 8400 ft Runway width 200 ft
Runway elevation 13 ft Runway displaced threshold 0 ft Runway heading 31
Runway 22L Runway length 8400 ft Runway width 200 ft
Runway elevation 13 ft Runway displaced threshold 0 ft Runway heading 211
Runway 13L Runway length 10000 ft Runway width 150 ft
Runway elevation 13 ft Runway displaced threshold 905 ft Runway heading 121
Runway 31R Runway length 10000 ft Runway width 150 ft
Runway elevation 13 ft Runway displaced threshold 1030 ft Runway heading 301
Runway 13R Runway length 14572 ft Runway width 150 ft
Runway elevation 13 ft Runway displaced threshold 2606 ft Runway heading 121
Runway 31L Runway length 14572 ft Runway width 150 ft
Runway elevation 13 ft Runway displaced threshold 3324 ft Runway heading 301

 AIRPORT FREQUENCIES
Type APP Name NEW YORK A Frequency 125.7 MHZ
Type APP Name NEW YORK A Frequency 127.4 MHZ
Type APP Name NEW YORK A Frequency 132.4 MHZ
Type ATIS Name ATIS Frequency 115.1 MHZ
Type CLD Name CLNC DEL Frequency 135.05 MHZ
Type DEP Name NEW YORK D Frequency 135.9 MHZ
Type GND Name GND Frequency 121.9 MHZ
Type RDO Name NEW YORK R Frequency 115.9 MHZ
Type TWR Name KENNEDY TW Frequency 119.1 MHZ
Type UNIC Name UNICOM Frequency 122.95 MHZ

 AIRPORT NEAR NAVIGATION AIDS
Type VOR-DME Name Canarsie Frequency 112300 KHZ
Type VOR-DME Name Kennedy Frequency 115900 KHZ